Terminal Aerodrome Forecast
Issued by NWS Austin/San Antonio, TX

Home | Current Version | Previous Version | Text Only | Print | Product List | Glossary On
Versions: 1 2 3 4 5 6 7 8 9 10 11 12 13 14 15 16 17 18
000
FTUS44 KEWX 021720
TAFDRT
TAF
KDRT 021720Z 0218/0318 15009KT P6SM OVC030
     FM021845 16009KT P6SM BKN035
     FM022000 14008KT P6SM SCT040
     FM022100 13009KT P6SM FEW050 FEW250
     FM030100 12008KT P6SM FEW250
     FM030800 11006KT P6SM BKN015=

USA.gov is the U.S. government's official web portal to all federal, state and local government web resources and services.